Time;durP1;ratioP1;P1;durP2;ratioP2;P2;SDS_P1;SDS_P2;PMS_P1;PMS_P2;Temp;Humidity;BMP_temperature;BMP_pressure;BME280_temperature;BME280_humidity;BME280_pressure;Samples;Min_cycle;Max_cycle;Signal;HPM_P1;HPM_P2
2022/01/31 00:00:08;;;;;;;15.82;13.85;;;8.90;96.10;;;;;;5134052;27;20112;-60
2022/01/31 00:02:40;;;;;;;20.25;13.05;;;8.90;96.10;;;;;;5124710;27;20063;-61
2022/01/31 00:05:09;;;;;;;16.02;12.63;;;8.90;96.00;;;;;;5119759;27;20040;-60
2022/01/31 00:07:37;;;;;;;13.02;10.85;;;8.90;95.90;;;;;;5128083;27;20046;-61
2022/01/31 00:10:08;;;;;;;17.77;11.27;;;8.90;95.80;;;;;;5134220;27;20499;-60
2022/01/31 00:12:49;;;;;;;18.50;10.75;;;8.90;95.80;;;;;;5130133;27;20472;-60
2022/01/31 00:15:18;;;;;;;13.57;10.52;;;8.90;95.70;;;;;;5133893;27;20450;-60
2022/01/31 00:17:45;;;;;;;11.82;9.73;;;8.90;95.50;;;;;;5120366;27;20055;-60
2022/01/31 00:20:13;;;;;;;14.23;10.23;;;8.90;95.40;;;;;;5115535;27;20063;-61
2022/01/31 00:22:41;;;;;;;12.07;9.00;;;9.00;95.70;;;;;;5101965;27;20122;-60
2022/01/31 00:25:08;;;;;;;14.40;10.48;;;8.90;95.30;;;;;;5102991;27;20051;-60
2022/01/31 00:27:36;;;;;;;20.00;10.60;;;8.90;95.20;;;;;;5127259;27;20040;-60
2022/01/31 00:30:06;;;;;;;12.63;9.73;;;9.00;95.50;;;;;;5115618;27;20035;-61
2022/01/31 00:32:35;;;;;;;12.18;9.55;;;9.00;95.30;;;;;;5124483;27;20043;-60
2022/01/31 00:35:03;;;;;;;13.00;8.38;;;9.00;95.30;;;;;;5115280;27;20061;-60
2022/01/31 00:37:31;;;;;;;10.93;8.77;;;9.00;95.10;;;;;;5102932;27;20122;-60
2022/01/31 00:39:58;;;;;;;13.00;8.80;;;9.00;94.90;;;;;;5106485;27;20092;-61
2022/01/31 00:42:27;;;;;;;10.18;8.55;;;9.00;94.90;;;;;;5121433;27;20062;-60
2022/01/31 00:45:09;;;;;;;13.65;9.25;;;9.10;94.80;;;;;;5133316;27;20047;-60
2022/01/31 00:47:40;;;;;;;12.55;7.85;;;9.10;94.90;;;;;;5124300;27;20397;-60
2022/01/31 00:50:12;;;;;;;13.23;8.90;;;9.10;94.90;;;;;;5115595;27;20048;-60
2022/01/31 00:52:42;;;;;;;16.60;9.85;;;9.10;94.80;;;;;;5114681;27;20043;-60
2022/01/31 00:55:12;;;;;;;13.18;8.40;;;9.10;94.70;;;;;;5099480;28;20055;-60
2022/01/31 00:57:42;;;;;;;12.90;7.95;;;9.10;94.70;;;;;;5129514;27;20126;-60
2022/01/31 01:00:14;;;;;;;13.48;7.47;;;9.10;94.60;;;;;;5115269;28;20054;-60
2022/01/31 01:02:42;;;;;;;13.15;8.40;;;9.10;94.60;;;;;;5095773;28;20043;-60
2022/01/31 01:05:10;;;;;;;10.43;8.15;;;9.10;94.60;;;;;;5114648;28;20046;-61
2022/01/31 01:07:38;;;;;;;9.57;7.20;;;9.10;94.60;;;;;;5123407;28;20504;-60
2022/01/31 01:10:07;;;;;;;9.15;7.13;;;9.10;94.50;;;;;;5133259;28;20084;-60
2022/01/31 01:12:34;;;;;;;8.38;6.25;;;9.10;94.50;;;;;;5131073;28;20066;-61
2022/01/31 01:15:02;;;;;;;8.38;5.85;;;9.10;94.40;;;;;;5134686;27;20043;-60
2022/01/31 01:17:29;;;;;;;7.60;6.10;;;9.10;94.30;;;;;;5111132;28;20046;-61
2022/01/31 01:19:57;;;;;;;11.98;8.45;;;9.00;94.20;;;;;;5114827;28;20043;-60
2022/01/31 01:22:24;;;;;;;11.45;9.07;;;9.00;94.20;;;;;;5116126;28;20027;-60
2022/01/31 01:24:52;;;;;;;14.27;10.10;;;8.90;94.30;;;;;;5123197;27;20042;-61
2022/01/31 01:27:20;;;;;;;14.48;9.13;;;8.90;94.30;;;;;;5100040;28;20043;-60
2022/01/31 01:29:50;;;;;;;15.35;10.55;;;8.80;94.20;;;;;;5114752;28;20100;-61
2022/01/31 01:32:20;;;;;;;12.85;10.57;;;8.80;94.20;;;;;;5120022;27;20039;-60
2022/01/31 01:34:47;;;;;;;13.63;10.05;;;8.70;94.30;;;;;;5118593;27;20400;-61
2022/01/31 01:37:15;;;;;;;11.95;9.48;;;8.70;94.20;;;;;;5128719;27;20046;-60
2022/01/31 01:39:45;;;;;;;12.32;7.88;;;8.70;94.20;;;;;;5118007;27;20035;-60
2022/01/31 01:42:13;;;;;;;9.30;7.10;;;8.70;94.20;;;;;;5101198;27;20553;-59
2022/01/31 01:44:50;;;;;;;8.57;6.18;;;8.70;94.20;;;;;;5118632;27;20043;-60
2022/01/31 01:47:24;;;;;;;7.03;4.93;;;8.70;94.00;;;;;;5119185;27;20050;-60
2022/01/31 01:49:53;;;;;;;6.03;4.65;;;8.70;93.80;;;;;;5137618;27;20078;-60
2022/01/31 01:52:25;;;;;;;4.20;2.53;;;8.80;93.40;;;;;;5118752;27;20046;-59
2022/01/31 01:54:54;;;;;;;4.45;2.53;;;8.80;92.80;;;;;;5119349;27;20043;-60
2022/01/31 01:57:23;;;;;;;3.90;2.05;;;8.90;92.50;;;;;;5119462;27;20046;-60
2022/01/31 01:59:57;;;;;;;4.72;2.65;;;8.90;92.50;;;;;;5119426;27;20031;-60
2022/01/31 02:02:36;;;;;;;6.18;3.00;;;8.90;92.30;;;;;;5137721;27;20039;-60
2022/01/31 02:05:12;;;;;;;5.90;3.28;;;9.00;92.60;;;;;;5119195;27;20096;-59
2022/01/31 02:07:41;;;;;;;7.03;3.25;;;9.00;92.60;;;;;;5119194;27;20039;-60
2022/01/31 02:10:12;;;;;;;5.05;3.35;;;9.00;92.10;;;;;;5102196;27;20051;-59
2022/01/31 02:13:05;;;;;;;5.65;3.33;;;8.90;92.10;;;;;;5137563;27;20096;-60
2022/01/31 02:15:58;;;;;;;9.35;3.67;;;9.00;92.10;;;;;;5095900;27;20047;-60
2022/01/31 02:18:30;;;;;;;5.10;3.47;;;9.00;92.00;;;;;;5119201;27;20054;-60
2022/01/31 02:21:01;;;;;;;6.25;3.58;;;8.90;91.90;;;;;;5119562;27;20036;-60
2022/01/31 02:23:32;;;;;;;6.25;3.80;;;8.90;91.80;;;;;;5118941;27;20058;-60
2022/01/31 02:26:23;;;;;;;7.38;3.13;;;8.90;91.70;;;;;;5128275;27;20062;-60
2022/01/31 02:28:53;;;;;;;4.20;2.78;;;8.90;91.80;;;;;;5118929;27;20032;-60
2022/01/31 02:31:22;;;;;;;7.38;3.67;;;8.90;91.70;;;;;;5118838;27;20103;-59
2022/01/31 02:33:49;;;;;;;6.35;3.60;;;8.90;91.60;;;;;;5118914;27;20080;-60
2022/01/31 02:36:17;;;;;;;7.35;3.53;;;8.90;91.60;;;;;;5136754;27;20039;-60
2022/01/31 02:38:44;;;;;;;6.68;3.85;;;8.90;91.60;;;;;;5118720;27;20100;-60
2022/01/31 02:41:12;;;;;;;6.30;3.95;;;8.90;91.70;;;;;;5118799;27;20050;-60
2022/01/31 02:43:40;;;;;;;5.57;4.03;;;8.90;91.80;;;;;;5101601;27;20047;-60
2022/01/31 02:46:16;;;;;;;;;;;8.80;91.70;;;;;;5118612;27;20477;-60
2022/01/31 02:48:52;;;;;;;5.35;3.35;;;8.90;91.70;;;;;;5118679;27;20353;-60
2022/01/31 02:51:25;;;;;;;4.47;3.03;;;8.80;91.70;;;;;;5118258;27;20086;-60
2022/01/31 02:53:53;;;;;;;3.90;2.70;;;8.80;91.70;;;;;;5118379;27;20206;-60
2022/01/31 02:56:20;;;;;;;5.40;2.60;;;8.80;91.70;;;;;;5101174;27;20042;-60
2022/01/31 02:58:48;;;;;;;3.50;2.45;;;8.80;91.90;;;;;;5101319;27;20035;-60
2022/01/31 03:01:16;;;;;;;5.50;2.75;;;8.80;92.20;;;;;;5118235;27;20043;-60
2022/01/31 03:03:44;;;;;;;4.30;3.08;;;8.90;92.40;;;;;;5118188;27;20059;-60
2022/01/31 03:06:12;;;;;;;3.47;2.20;;;8.90;92.60;;;;;;5101259;27;20489;-59
2022/01/31 03:08:39;;;;;;;3.45;2.33;;;8.90;92.70;;;;;;5100880;27;20043;-59
2022/01/31 03:11:30;;;;;;;4.28;2.95;;;8.90;92.90;;;;;;5135791;27;20143;-59
2022/01/31 03:14:04;;;;;;;4.72;2.53;;;8.90;92.90;;;;;;5118039;27;20035;-59
2022/01/31 03:16:34;;;;;;;4.05;2.38;;;8.90;93.00;;;;;;5118300;27;20481;-59
2022/01/31 03:19:11;;;;;;;4.70;2.83;;;8.90;92.90;;;;;;5136451;27;20039;-59
2022/01/31 03:21:41;;;;;;;3.63;3.05;;;8.90;92.90;;;;;;5117933;27;20049;-59
2022/01/31 03:24:10;;;;;;;5.93;4.25;;;8.80;92.90;;;;;;5118169;27;20059;-60
2022/01/31 03:26:38;;;;;;;5.38;3.17;;;8.80;93.00;;;;;;5135937;27;20139;-60
2022/01/31 03:29:07;;;;;;;5.18;3.42;;;8.80;93.10;;;;;;5117709;27;20063;-59
2022/01/31 03:31:35;;;;;;;3.83;2.95;;;8.70;93.10;;;;;;5117752;27;20419;-59
2022/01/31 03:34:03;;;;;;;4.20;2.53;;;8.70;93.30;;;;;;5136203;27;20031;-60
2022/01/31 03:36:31;;;;;;;6.68;2.72;;;8.70;93.40;;;;;;5117689;27;20039;-59
2022/01/31 03:38:59;;;;;;;4.47;2.80;;;8.70;93.60;;;;;;5117600;27;20070;-59
2022/01/31 03:41:28;;;;;;;4.90;3.42;;;8.70;93.50;;;;;;5117317;27;20470;-59
2022/01/31 03:43:56;;;;;;;7.05;3.38;;;8.70;93.60;;;;;;5136065;27;20043;-59
2022/01/31 03:46:23;;;;;;;6.25;2.63;;;8.70;93.50;;;;;;5117279;27;20039;-60
2022/01/31 03:48:52;;;;;;;5.03;3.33;;;8.80;93.50;;;;;;5083884;27;20197;-59
2022/01/31 03:51:44;;;;;;;5.65;3.53;;;8.70;93.30;;;;;;5103962;27;20434;-59
2022/01/31 03:54:16;;;;;;;6.35;4.32;;;8.70;93.30;;;;;;5100530;27;20417;-59
2022/01/31 03:56:43;;;;;;;5.13;3.72;;;8.70;93.30;;;;;;5117013;27;20035;-59
2022/01/31 03:59:31;;;;;;;5.53;4.28;;;8.60;93.30;;;;;;5086688;27;20055;-60
2022/01/31 04:01:59;;;;;;;5.85;3.65;;;8.60;93.20;;;;;;5117514;27;20446;-60
2022/01/31 04:04:26;;;;;;;6.13;3.33;;;8.60;93.10;;;;;;5135241;27;20088;-60
2022/01/31 04:06:54;;;;;;;5.47;3.20;;;8.60;93.20;;;;;;5117242;27;20473;-60
2022/01/31 04:09:21;;;;;;;4.57;3.60;;;8.60;93.30;;;;;;5135420;27;20127;-60
2022/01/31 04:11:49;;;;;;;4.53;3.08;;;8.60;93.30;;;;;;5135100;27;20039;-60
2022/01/31 04:14:16;;;;;;;6.15;3.35;;;8.60;93.40;;;;;;5135242;27;20066;-60
2022/01/31 04:16:43;;;;;;;4.25;2.67;;;8.60;93.50;;;;;;5135206;27;20069;-60
2022/01/31 04:19:11;;;;;;;4.18;2.60;;;8.60;93.50;;;;;;5135003;27;20561;-60
2022/01/31 04:21:38;;;;;;;5.43;3.05;;;8.60;93.50;;;;;;5135015;27;20122;-60
2022/01/31 04:24:07;;;;;;;3.90;2.88;;;8.60;93.40;;;;;;5135107;27;20084;-60
2022/01/31 04:26:44;;;;;;;3.53;2.60;;;8.60;93.30;;;;;;5134880;27;20047;-59
2022/01/31 04:29:17;;;;;;;3.95;2.35;;;8.60;93.30;;;;;;5135038;27;20122;-59
2022/01/31 04:31:49;;;;;;;5.30;2.15;;;8.60;93.40;;;;;;5134945;27;20455;-59
2022/01/31 04:34:16;;;;;;;5.68;2.72;;;8.70;93.40;;;;;;5135055;27;20039;-59
2022/01/31 04:36:44;;;;;;;3.00;1.77;;;8.70;93.50;;;;;;5116675;27;20386;-60
2022/01/31 04:39:17;;;;;;;4.82;2.33;;;8.70;93.60;;;;;;5134814;27;20043;-60
2022/01/31 04:41:49;;;;;;;4.90;2.95;;;8.70;93.70;;;;;;5116602;27;20054;-60
2022/01/31 04:44:17;;;;;;;4.50;2.30;;;8.70;93.90;;;;;;5134598;27;20058;-60
2022/01/31 04:46:51;;;;;;;5.97;2.92;;;8.70;94.00;;;;;;5116651;27;20473;-59
2022/01/31 04:49:20;;;;;;;6.13;3.20;;;8.70;94.00;;;;;;5115840;28;20545;-59
2022/01/31 04:51:48;;;;;;;4.60;2.92;;;8.80;94.10;;;;;;5134665;27;20049;-59
2022/01/31 04:54:16;;;;;;;4.60;2.70;;;8.80;94.20;;;;;;5134660;27;20118;-60
2022/01/31 04:56:44;;;;;;;4.35;3.03;;;8.80;94.30;;;;;;5134468;27;20043;-60
2022/01/31 04:59:11;;;;;;;5.65;2.50;;;8.70;94.30;;;;;;5134592;27;20035;-59
2022/01/31 05:01:42;;;;;;;8.23;3.30;;;8.70;94.40;;;;;;5116175;27;20493;-60
2022/01/31 05:04:09;;;;;;;5.15;3.22;;;8.70;94.40;;;;;;5116446;28;20039;-59
2022/01/31 05:06:39;;;;;;;6.20;3.35;;;8.70;94.50;;;;;;5134245;27;20043;-59
2022/01/31 05:09:09;;;;;;;6.88;3.53;;;8.70;94.50;;;;;;5115750;28;20050;-59
2022/01/31 05:11:36;;;;;;;4.90;3.55;;;8.70;94.60;;;;;;5134306;28;20048;-60
2022/01/31 05:14:04;;;;;;;6.80;3.97;;;8.60;94.60;;;;;;5116204;28;20039;-59
2022/01/31 05:16:31;;;;;;;5.18;3.58;;;8.60;94.70;;;;;;5099381;28;20427;-60
2022/01/31 05:19:01;;;;;;;6.57;4.47;;;8.60;94.80;;;;;;5134319;28;20035;-59
2022/01/31 05:21:30;;;;;;;7.78;4.38;;;8.60;94.80;;;;;;5134205;28;20063;-60
2022/01/31 05:23:57;;;;;;;4.82;3.53;;;8.60;94.80;;;;;;5134307;28;20118;-59
2022/01/31 05:26:25;;;;;;;7.00;5.28;;;8.60;94.70;;;;;;5134448;28;20062;-60
2022/01/31 05:28:52;;;;;;;6.18;3.50;;;8.60;94.80;;;;;;5116426;28;20374;-60
2022/01/31 05:31:20;;;;;;;5.80;3.95;;;8.60;94.70;;;;;;5134229;28;20073;-60
2022/01/31 05:33:47;;;;;;;6.95;3.80;;;8.60;94.70;;;;;;5099371;28;20138;-60
2022/01/31 05:36:15;;;;;;;6.10;3.47;;;8.60;94.80;;;;;;5134292;28;20036;-60
2022/01/31 05:38:44;;;;;;;5.25;3.20;;;8.50;94.80;;;;;;5134197;28;20401;-59
2022/01/31 05:41:18;;;;;;;4.75;3.30;;;8.50;94.90;;;;;;5134112;28;20036;-59
2022/01/31 05:43:48;;;;;;;6.40;4.00;;;8.50;95.00;;;;;;5134222;28;20370;-59
2022/01/31 05:46:16;;;;;;;5.57;3.50;;;8.50;94.90;;;;;;5115655;28;20051;-60
2022/01/31 05:48:43;;;;;;;6.63;3.60;;;8.50;95.00;;;;;;5134097;28;20035;-59
2022/01/31 05:51:17;;;;;;;6.72;4.15;;;8.50;95.10;;;;;;5115746;28;20051;-60
2022/01/31 05:53:46;;;;;;;6.50;4.40;;;8.50;95.20;;;;;;5134261;28;20442;-60
2022/01/31 05:56:14;;;;;;;7.28;4.88;;;8.50;95.30;;;;;;5115849;28;20393;-60
2022/01/31 05:58:42;;;;;;;12.45;6.75;;;8.50;95.40;;;;;;5133813;28;20043;-60
2022/01/31 06:01:10;;;;;;;11.25;8.02;;;8.50;95.50;;;;;;5133869;28;20054;-60
2022/01/31 06:03:38;;;;;;;10.60;8.38;;;8.50;95.60;;;;;;5133885;28;20043;-60
2022/01/31 06:06:05;;;;;;;13.38;8.85;;;8.50;95.70;;;;;;5133748;28;20031;-60
2022/01/31 06:08:33;;;;;;;9.45;7.68;;;8.50;95.70;;;;;;5098493;28;20131;-60
2022/01/31 06:11:01;;;;;;;10.50;7.05;;;8.50;95.70;;;;;;5133822;28;20042;-60
2022/01/31 06:13:31;;;;;;;10.98;7.18;;;8.50;95.80;;;;;;5133799;28;20035;-59
2022/01/31 06:15:59;;;;;;;10.75;6.60;;;8.60;96.00;;;;;;5133927;28;20043;-59
2022/01/31 06:18:27;;;;;;;8.52;6.57;;;8.80;96.10;;;;;;5133815;27;20112;-60
2022/01/31 06:20:54;;;;;;;9.27;5.93;;;9.10;96.10;;;;;;5118263;27;20097;-59
2022/01/31 06:23:22;;;;;;;11.98;4.82;;;9.50;95.70;;;;;;5119196;27;20086;-59
2022/01/31 06:25:49;;;;;;;7.03;5.40;;;9.90;95.00;;;;;;5119312;27;20427;-60
2022/01/31 06:28:17;;;;;;;9.48;5.20;;;10.40;94.30;;;;;;5137211;27;20078;-60
2022/01/31 06:30:45;;;;;;;7.80;4.00;;;10.90;93.60;;;;;;5119023;27;20074;-60
2022/01/31 06:33:16;;;;;;;5.90;4.00;;;11.40;92.90;;;;;;5118879;27;20047;-60
2022/01/31 06:35:44;;;;;;;7.13;4.32;;;11.90;92.30;;;;;;5137372;27;20447;-60
2022/01/31 06:38:12;;;;;;;5.80;3.75;;;12.40;91.80;;;;;;5118896;27;20043;-60
2022/01/31 06:40:40;;;;;;;7.03;3.70;;;13.00;91.20;;;;;;5119058;27;20050;-60
2022/01/31 06:43:07;;;;;;;7.03;4.07;;;13.50;90.50;;;;;;5118932;27;20478;-60
2022/01/31 06:45:35;;;;;;;7.22;4.05;;;14.10;90.00;;;;;;5136925;27;20080;-60
2022/01/31 06:48:04;;;;;;;8.90;4.80;;;14.60;88.60;;;;;;5118657;27;20397;-60
2022/01/31 06:50:32;;;;;;;10.30;5.75;;;15.10;87.40;;;;;;5136625;27;20055;-60
2022/01/31 06:53:01;;;;;;;7.65;4.82;;;15.60;86.10;;;;;;5118733;27;20044;-60
2022/01/31 06:55:30;;;;;;;10.18;5.18;;;16.10;84.70;;;;;;5136845;27;20034;-60
2022/01/31 06:57:57;;;;;;;10.90;5.03;;;16.60;83.20;;;;;;5118556;27;20073;-60
2022/01/31 07:00:25;;;;;;;11.43;6.22;;;17.10;81.70;;;;;;5117550;27;20043;-59
2022/01/31 07:02:54;;;;;;;12.27;4.90;;;17.60;80.70;;;;;;5136899;27;20164;-59
2022/01/31 07:05:22;;;;;;;8.55;5.43;;;17.90;79.50;;;;;;5136702;27;20039;-59
2022/01/31 07:07:50;;;;;;;8.10;4.97;;;18.30;78.50;;;;;;5136553;27;20434;-59
2022/01/31 07:10:17;;;;;;;9.93;6.45;;;18.70;77.60;;;;;;5118283;27;20118;-60
2022/01/31 07:12:52;;;;;;;13.18;7.05;;;19.30;76.10;;;;;;5136485;27;20039;-60
2022/01/31 07:15:20;;;;;;;14.93;10.23;;;19.50;74.90;;;;;;5136328;27;20031;-60
2022/01/31 07:17:47;;;;;;;13.90;7.70;;;19.60;74.10;;;;;;5118003;27;20374;-59
2022/01/31 07:20:37;;;;;;;12.85;8.40;;;19.70;72.90;;;;;;5136409;27;20080;-60
2022/01/31 07:23:22;;;;;;;11.10;7.03;;;19.80;72.30;;;;;;5117981;27;20046;-60
2022/01/31 07:25:50;;;;;;;17.08;7.70;;;19.70;71.60;;;;;;5117608;27;20039;-60
2022/01/31 07:28:17;;;;;;;10.23;6.70;;;19.60;71.40;;;;;;5136321;27;20043;-60
2022/01/31 07:30:50;;;;;;;9.32;6.78;;;19.40;71.70;;;;;;5117742;27;20039;-60
2022/01/31 07:33:19;;;;;;;9.35;6.32;;;19.30;72.10;;;;;;5136242;27;20134;-60
2022/01/31 07:35:48;;;;;;;13.38;6.28;;;19.00;72.60;;;;;;5136087;27;20069;-60
2022/01/31 07:38:17;;;;;;;10.50;6.22;;;18.70;73.20;;;;;;5135859;27;20066;-60
2022/01/31 07:40:45;;;;;;;7.80;6.03;;;18.50;73.50;;;;;;5136056;27;20099;-60
2022/01/31 07:43:13;;;;;;;8.35;7.00;;;18.30;74.00;;;;;;5135843;27;20118;-60
2022/01/31 07:45:41;;;;;;;11.57;6.03;;;18.20;74.20;;;;;;5117570;27;20081;-60
2022/01/31 07:48:09;;;;;;;9.85;5.00;;;18.20;74.60;;;;;;5135858;27;20055;-59
2022/01/31 07:50:37;;;;;;;7.70;4.38;;;18.10;74.70;;;;;;5117220;27;20051;-60
2022/01/31 07:53:05;;;;;;;8.98;5.10;;;18.10;75.00;;;;;;5135625;27;20126;-60
2022/01/31 07:55:33;;;;;;;7.95;5.25;;;18.20;75.60;;;;;;5135435;27;20043;-60
2022/01/31 07:58:01;;;;;;;8.48;5.72;;;18.20;75.90;;;;;;5117202;27;20084;-60
2022/01/31 08:00:45;;;;;;;11.73;6.07;;;18.30;76.20;;;;;;5135483;27;20096;-60
2022/01/31 08:03:13;;;;;;;11.70;5.63;;;18.30;76.90;;;;;;5135411;27;20148;-60
2022/01/31 08:05:41;;;;;;;12.30;6.15;;;18.40;77.40;;;;;;5135406;27;20039;-60
2022/01/31 08:08:09;;;;;;;9.15;5.43;;;18.40;78.00;;;;;;5135292;27;20039;-60
2022/01/31 08:10:38;;;;;;;8.43;4.40;;;18.40;79.20;;;;;;5117313;27;20065;-60
2022/01/31 08:13:07;;;;;;;13.48;5.95;;;18.30;79.20;;;;;;5135470;27;20042;-60
2022/01/31 08:16:01;;;;;;;11.98;4.97;;;18.20;80.20;;;;;;5135277;27;20504;-60
2022/01/31 08:18:24;;;;;;;6.65;4.63;;;18.10;81.00;;;;;;5134287;27;20055;-60
2022/01/31 08:20:51;;;;;;;7.03;4.03;;;17.80;81.60;;;;;;5117057;27;20404;-60
2022/01/31 08:23:19;;;;;;;6.32;3.08;;;17.70;82.40;;;;;;5135037;27;20043;-60
2022/01/31 08:25:49;;;;;;;9.40;3.60;;;17.50;82.90;;;;;;5135286;27;20358;-60
2022/01/31 08:28:18;;;;;;;5.22;3.58;;;17.30;83.70;;;;;;5135020;27;20575;-60
2022/01/31 08:30:58;;;;;;;10.48;4.15;;;17.20;84.20;;;;;;5134805;27;20130;-61
2022/01/31 08:33:38;;;;;;;9.57;4.97;;;17.10;84.60;;;;;;5135127;27;20043;-60
2022/01/31 08:36:07;;;;;;;7.88;3.88;;;16.90;84.70;;;;;;5135035;27;20047;-59
2022/01/31 08:38:38;;;;;;;5.88;3.67;;;16.90;84.80;;;;;;5116603;27;20035;-59
2022/01/31 08:41:07;;;;;;;7.90;4.32;;;16.70;84.80;;;;;;5116536;27;20453;-60
2022/01/31 08:43:36;;;;;;;5.05;3.38;;;16.70;84.90;;;;;;5134152;27;20035;-60
2022/01/31 08:46:05;;;;;;;5.97;3.47;;;16.60;85.30;;;;;;5116525;27;20137;-60
2022/01/31 08:48:33;;;;;;;5.35;3.33;;;16.70;85.30;;;;;;5134877;27;20490;-60
2022/01/31 08:51:03;;;;;;;4.95;3.63;;;16.60;85.30;;;;;;5134382;27;20043;-60
2022/01/31 08:53:32;;;;;;;5.65;3.17;;;16.70;85.40;;;;;;5134674;27;20074;-60
2022/01/31 08:56:06;;;;;;;4.15;2.08;;;16.70;85.50;;;;;;5134440;27;20082;-59
2022/01/31 08:58:36;;;;;;;5.20;2.10;;;16.70;85.50;;;;;;5134763;27;20043;-60
2022/01/31 09:01:06;;;;;;;3.85;1.98;;;16.70;85.60;;;;;;5116636;27;20043;-60
2022/01/31 09:06:09;;;;;;;5.35;2.38;;;16.70;85.60;;;;;;5116973;28;20049;-60
2022/01/31 09:08:38;;;;;;;4.75;1.95;;;16.70;85.90;;;;;;5128808;28;20084;-60
2022/01/31 09:11:07;;;;;;;5.93;2.08;;;16.60;86.10;;;;;;5132971;28;20488;-60
2022/01/31 09:13:36;;;;;;;4.22;2.20;;;16.60;86.10;;;;;;5125279;28;20047;-60
2022/01/31 09:16:06;;;;;;;3.35;1.80;;;16.50;86.00;;;;;;5132622;28;20043;-60
2022/01/31 09:18:34;;;;;;;3.55;2.33;;;16.70;86.30;;;;;;5113678;28;20069;-60
2022/01/31 09:21:02;;;;;;;4.20;2.88;;;16.80;86.50;;;;;;5133306;28;20051;-60
2022/01/31 09:23:30;;;;;;;2.92;2.33;;;16.80;85.80;;;;;;5114011;28;20039;-60
2022/01/31 09:25:58;;;;;;;3.70;2.03;;;16.90;85.40;;;;;;5114935;28;20497;-59
2022/01/31 09:28:26;;;;;;;3.75;1.92;;;17.00;84.90;;;;;;5130390;28;20556;-61
2022/01/31 09:30:54;;;;;;;3.08;1.98;;;17.10;84.90;;;;;;5132485;28;20366;-60
2022/01/31 09:33:25;;;;;;;2.95;1.80;;;17.10;85.50;;;;;;5110580;28;20067;-60
2022/01/31 09:35:53;;;;;;;2.45;1.77;;;17.10;84.50;;;;;;5130856;28;20038;-60
2022/01/31 09:38:24;;;;;;;3.50;1.95;;;16.90;84.40;;;;;;5123424;28;20047;-60
2022/01/31 09:40:53;;;;;;;3.40;1.90;;;16.90;84.60;;;;;;5116735;28;20092;-60
2022/01/31 09:48:40;;;;;;;4.50;2.25;;;16.70;85.40;;;;;;5128237;28;20050;-60
2022/01/31 09:51:22;;;;;;;5.45;2.38;;;16.60;85.80;;;;;;5132289;28;20053;-60
2022/01/31 09:53:51;;;;;;;3.80;1.95;;;16.80;85.30;;;;;;5100106;27;20043;-60
2022/01/31 09:56:22;;;;;;;3.30;2.10;;;16.80;84.70;;;;;;5138219;27;20135;-59
2022/01/31 09:58:51;;;;;;;4.43;2.33;;;16.90;85.20;;;;;;5138192;27;20051;-60
2022/01/31 10:01:24;;;;;;;3.30;1.95;;;16.90;84.90;;;;;;5119812;27;20050;-60
2022/01/31 10:03:56;;;;;;;5.13;2.80;;;16.40;83.60;;;;;;5137836;27;20039;-60
2022/01/31 10:06:24;;;;;;;4.05;2.15;;;16.40;84.40;;;;;;5119567;27;20104;-61
2022/01/31 10:09:01;;;;;;;6.32;3.20;;;16.40;85.00;;;;;;5137607;27;20050;-60
2022/01/31 10:11:37;;;;;;;5.40;3.08;;;16.20;85.60;;;;;;5137528;27;20481;-61
2022/01/31 10:17:34;;;;;;;6.93;3.00;;;16.30;85.10;;;;;;5137628;27;20438;-61
2022/01/31 10:20:09;;;;;;;7.05;2.53;;;16.60;86.00;;;;;;5137668;27;20040;-61
2022/01/31 10:22:38;;;;;;;5.72;4.38;;;16.80;84.60;;;;;;5119294;27;20043;-61
2022/01/31 10:25:09;;;;;;;3.72;2.90;;;16.80;79.10;;;;;;5137576;27;20043;-61
2022/01/31 10:27:47;;;;;;;5.88;3.67;;;16.50;77.60;;;;;;5119048;27;20031;-61
2022/01/31 10:30:18;;;;;;;7.18;3.50;;;16.50;78.10;;;;;;5119132;27;20378;-61
2022/01/31 10:32:48;;;;;;;4.95;2.60;;;16.40;79.70;;;;;;5119289;27;20043;-61
2022/01/31 10:35:22;;;;;;;4.05;2.45;;;16.30;80.60;;;;;;5137191;27;20043;-61
2022/01/31 10:37:55;;;;;;;3.83;2.53;;;16.10;79.60;;;;;;5119166;27;20043;-61
2022/01/31 10:45:51;;;;;;;3.13;1.90;;;15.40;81.90;;;;;;5137116;27;20504;-61
2022/01/31 10:57:00;;;;;;;3.22;1.80;;;15.60;81.80;;;;;;5137053;27;20046;-61
2022/01/31 10:59:38;;;;;;;5.57;2.20;;;15.50;81.20;;;;;;5100617;27;20501;-61
2022/01/31 11:02:08;;;;;;;4.10;2.45;;;15.50;80.70;;;;;;5136763;27;20058;-60
2022/01/31 11:04:38;;;;;;;3.92;2.28;;;15.60;80.60;;;;;;5118311;27;20043;-60
2022/01/31 11:07:12;;;;;;;4.40;2.42;;;15.50;79.50;;;;;;5136128;27;20070;-61
2022/01/31 11:09:41;;;;;;;3.53;1.98;;;15.50;79.70;;;;;;5118144;27;20031;-61
2022/01/31 11:12:11;;;;;;;3.97;2.60;;;15.50;80.60;;;;;;5118346;27;20142;-61
2022/01/31 11:14:42;;;;;;;4.68;3.00;;;15.60;81.50;;;;;;5136483;27;20044;-61
2022/01/31 11:17:13;;;;;;;3.92;2.72;;;15.70;81.40;;;;;;5118507;27;20043;-61
2022/01/31 11:19:45;;;;;;;4.22;2.80;;;15.70;80.90;;;;;;5136357;27;20431;-61
2022/01/31 11:22:14;;;;;;;8.63;3.53;;;15.40;80.70;;;;;;5136397;27;20186;-61
2022/01/31 11:24:54;;;;;;;5.68;3.47;;;15.50;81.70;;;;;;5136312;27;20053;-61
2022/01/31 11:27:27;;;;;;;4.35;2.42;;;15.50;81.70;;;;;;5117716;27;20039;-61
2022/01/31 11:29:55;;;;;;;5.00;2.40;;;15.70;80.30;;;;;;5118071;27;20161;-61
2022/01/31 11:32:24;;;;;;;5.88;2.92;;;15.70;80.20;;;;;;5136157;27;20126;-61
2022/01/31 11:34:53;;;;;;;4.20;2.90;;;15.60;79.20;;;;;;5136016;27;20043;-61
2022/01/31 11:37:22;;;;;;;4.18;2.97;;;15.50;78.70;;;;;;5117751;27;20054;-63
2022/01/31 11:40:03;;;;;;;3.75;2.53;;;15.60;78.20;;;;;;5136104;27;20047;-67
2022/01/31 11:42:31;;;;;;;6.22;2.92;;;15.80;80.10;;;;;;5117824;27;20378;-63
2022/01/31 11:45:15;;;;;;;4.60;2.67;;;15.90;77.90;;;;;;5136035;27;20197;-64
2022/01/31 11:47:48;;;;;;;4.57;3.03;;;15.90;77.20;;;;;;5117351;27;20031;-64
2022/01/31 11:50:18;;;;;;;5.28;2.90;;;15.80;78.70;;;;;;5123479;27;20504;-64
2022/01/31 11:52:50;;;;;;;4.80;2.97;;;15.60;79.40;;;;;;5135847;27;20047;-64
2022/01/31 11:55:20;;;;;;;5.20;3.17;;;15.60;80.20;;;;;;5117661;27;20118;-64
2022/01/31 11:57:52;;;;;;;4.75;3.22;;;15.80;80.70;;;;;;5135666;27;20070;-64
2022/01/31 12:00:23;;;;;;;6.82;3.00;;;15.90;79.70;;;;;;5134361;27;20064;-64
2022/01/31 12:02:53;;;;;;;6.05;2.85;;;15.90;77.50;;;;;;5134244;27;20489;-64
2022/01/31 12:05:23;;;;;;;4.70;3.33;;;16.00;78.10;;;;;;5156244;27;20447;-64
2022/01/31 12:08:03;;;;;;;6.72;4.45;;;16.10;78.30;;;;;;5137605;27;20096;-64
2022/01/31 12:10:38;;;;;;;7.25;3.53;;;16.20;77.30;;;;;;5155942;27;20122;-64
2022/01/31 12:13:28;;;;;;;9.02;4.47;;;16.10;77.00;;;;;;5137200;27;20072;-64
2022/01/31 12:18:50;;;;;;;4.80;2.72;;;16.00;76.20;;;;;;5109193;27;20076;-65
2022/01/31 12:22:00;;;;;;;6.75;2.83;;;16.00;76.10;;;;;;5113134;27;20057;-65
2022/01/31 12:24:39;;;;;;;5.22;2.67;;;15.90;76.40;;;;;;5025268;28;20060;-65
2022/01/31 12:27:09;;;;;;;4.13;2.20;;;15.70;75.80;;;;;;5119444;27;20047;-65
2022/01/31 12:29:50;;;;;;;3.70;2.22;;;15.60;75.70;;;;;;5133770;27;20038;-64
2022/01/31 12:32:38;;;;;;;4.53;2.00;;;15.50;76.00;;;;;;5123202;27;20043;-64
2022/01/31 12:35:06;;;;;;;3.00;2.00;;;15.70;74.60;;;;;;5134311;27;20404;-65
2022/01/31 12:37:38;;;;;;;4.38;2.47;;;15.50;73.20;;;;;;5131268;27;20054;-65
2022/01/31 12:40:29;;;;;;;5.47;2.72;;;15.40;72.70;;;;;;5133562;27;20050;-64
2022/01/31 12:45:39;;;;;;;3.75;2.40;;;15.10;73.50;;;;;;5115611;27;20051;-64
2022/01/31 12:48:10;;;;;;;3.78;2.40;;;15.10;73.20;;;;;;5132057;27;20039;-64
2022/01/31 12:50:51;;;;;;;3.50;2.42;;;15.10;71.60;;;;;;5134826;27;20047;-64
2022/01/31 12:53:26;;;;;;;3.60;1.90;;;15.20;71.10;;;;;;5120530;27;20035;-65
2022/01/31 12:56:01;;;;;;;5.70;2.30;;;15.20;70.60;;;;;;5133133;27;20088;-65
2022/01/31 12:58:36;;;;;;;3.08;1.70;;;15.20;69.80;;;;;;5105034;27;20035;-65
2022/01/31 13:01:12;;;;;;;4.18;1.90;;;15.20;68.20;;;;;;5132212;27;20036;-64
2022/01/31 13:03:46;;;;;;;3.75;1.90;;;15.20;68.60;;;;;;5124440;27;20087;-64
2022/01/31 13:06:48;;;;;;;3.60;2.00;;;15.10;69.20;;;;;;5130461;27;20184;-65
2022/01/31 13:09:18;;;;;;;3.90;2.17;;;15.00;68.20;;;;;;5132951;28;20039;-64
2022/01/31 13:12:17;;;;;;;3.17;2.05;;;15.00;68.80;;;;;;5109985;28;20042;-65
2022/01/31 13:14:51;;;;;;;3.63;1.92;;;15.10;68.70;;;;;;5124895;28;20564;-64
2022/01/31 13:17:21;;;;;;;3.50;2.15;;;15.10;67.20;;;;;;5099570;28;20048;-64
2022/01/31 13:19:54;;;;;;;3.90;2.10;;;15.00;66.50;;;;;;5124155;28;20047;-64
2022/01/31 13:25:06;;;;;;;4.05;2.20;;;14.80;66.80;;;;;;5115983;28;20592;-64
2022/01/31 13:27:44;;;;;;;3.47;1.98;;;14.60;67.80;;;;;;5115342;27;20047;-64
2022/01/31 13:30:24;;;;;;;3.85;2.33;;;14.60;69.10;;;;;;5137812;27;20043;-64
2022/01/31 13:32:53;;;;;;;3.15;2.33;;;14.60;68.00;;;;;;5138432;27;20039;-64
2022/01/31 13:35:31;;;;;;;9.63;5.07;;;14.60;66.50;;;;;;5120126;27;20497;-64
2022/01/31 13:38:01;;;;;;;9.10;5.68;;;14.60;67.20;;;;;;5086380;27;20493;-64
2022/01/31 13:40:36;;;;;;;4.13;2.47;;;14.50;68.40;;;;;;5138357;27;20092;-64
2022/01/31 13:43:33;;;;;;;3.17;2.17;;;14.50;69.30;;;;;;5138041;27;20039;-64